Time;durP1;ratioP1;P1;durP2;ratioP2;P2;SDS_P1;SDS_P2;PMS_P1;PMS_P2;Temp;Humidity;BMP_temperature;BMP_pressure;BME280_temperature;BME280_humidity;BME280_pressure;Samples;Min_cycle;Max_cycle;Signal;HPM_P1;HPM_P2
2023/07/20 00:01:00;;;;;;;5.10;4.33;;;20.10;99.90;;;;;;5055478;28;20471;-76
2023/07/20 00:03:28;;;;;;;6.40;5.80;;;20.00;99.90;;;;;;5056203;28;20486;-79
2023/07/20 00:05:55;;;;;;;5.30;4.90;;;20.00;99.90;;;;;;5055347;28;20546;-79
2023/07/20 00:08:22;;;;;;;6.30;5.70;;;20.00;99.90;;;;;;5056229;28;20928;-79
2023/07/20 00:10:49;;;;;;;4.00;3.70;;;20.00;99.90;;;;;;5056034;28;20464;-79
2023/07/20 00:13:18;;;;;;;5.00;4.47;;;20.00;99.90;;;;;;5055828;28;20505;-75
2023/07/20 00:15:45;;;;;;;4.30;4.00;;;20.00;99.90;;;;;;5056124;28;20533;-75
2023/07/20 00:18:13;;;;;;;4.90;4.40;;;19.90;99.90;;;;;;5055678;28;20920;-75
2023/07/20 00:20:41;;;;;;;3.93;3.63;;;19.90;99.90;;;;;;5055943;28;20843;-76
2023/07/20 00:23:08;;;;;;;7.30;4.37;;;19.80;99.90;;;;;;5055429;28;20466;-75
2023/07/20 00:25:36;;;;;;;4.70;4.37;;;19.80;99.90;;;;;;5055733;28;20528;-75
2023/07/20 00:28:04;;;;;;;4.30;3.90;;;19.80;99.90;;;;;;5055140;28;20562;-74
2023/07/20 00:30:31;;;;;;;5.57;4.20;;;19.70;99.90;;;;;;5055341;28;20471;-75
2023/07/20 00:32:57;;;;;;;5.83;4.20;;;19.70;99.90;;;;;;5055514;28;20558;-74
2023/07/20 00:35:24;;;;;;;4.90;4.50;;;19.70;99.90;;;;;;5055308;28;20487;-80
2023/07/20 00:37:53;;;;;;;5.37;4.87;;;19.70;99.90;;;;;;5055718;28;20561;-79
2023/07/20 00:40:20;;;;;;;5.27;4.23;;;19.70;99.90;;;;;;5054933;28;20546;-76
2023/07/20 00:42:47;;;;;;;5.70;4.30;;;19.60;99.90;;;;;;5054897;28;20471;-75
2023/07/20 00:45:14;;;;;;;4.90;4.40;;;19.60;99.90;;;;;;5055123;28;20542;-74
2023/07/20 00:47:41;;;;;;;4.60;4.27;;;19.60;99.90;;;;;;5044934;28;20474;-79
2023/07/20 00:50:10;;;;;;;5.13;4.63;;;19.60;99.90;;;;;;5055388;28;20475;-79
2023/07/20 00:52:40;;;;;;;4.93;4.53;;;19.60;99.90;;;;;;5045687;28;20527;-78
2023/07/20 00:55:11;;;;;;;6.37;5.70;;;19.50;99.90;;;;;;5055752;28;20471;-78
2023/07/20 00:57:38;;;;;;;4.90;4.37;;;19.60;99.90;;;;;;5057351;28;20554;-79
2023/07/20 01:00:07;;;;;;;5.00;4.60;;;19.50;99.90;;;;;;5057347;28;20549;-79
2023/07/20 01:02:34;;;;;;;6.10;5.53;;;19.50;99.90;;;;;;5039273;28;20459;-78
2023/07/20 01:05:02;;;;;;;6.20;5.60;;;19.50;99.90;;;;;;5055977;28;20829;-76
2023/07/20 01:07:35;;;;;;;6.97;6.27;;;19.60;99.90;;;;;;5054603;28;20475;-75
2023/07/20 01:10:13;;;;;;;5.80;5.30;;;19.50;99.90;;;;;;5056200;28;20544;-75
2023/07/20 01:12:44;;;;;;;5.87;5.27;;;19.50;99.90;;;;;;5054826;28;20542;-76
2023/07/20 01:15:12;;;;;;;4.77;4.20;;;19.50;99.90;;;;;;5055607;28;20530;-79
2023/07/20 01:17:39;;;;;;;6.17;5.67;;;19.50;99.90;;;;;;5055000;28;20470;-79
2023/07/20 01:20:08;;;;;;;4.70;4.40;;;19.50;99.90;;;;;;5049312;28;20478;-79
2023/07/20 01:23:01;;;;;;;6.47;5.87;;;19.50;99.90;;;;;;5056727;28;21027;-79
2023/07/20 01:25:46;;;;;;;5.50;5.10;;;19.50;99.90;;;;;;5034988;28;20556;-78
2023/07/20 01:28:40;;;;;;;5.93;5.53;;;19.50;99.90;;;;;;5044508;28;20558;-76
2023/07/20 01:31:19;;;;;;;5.50;5.10;;;19.60;99.90;;;;;;5055436;28;20474;-75
2023/07/20 01:33:48;;;;;;;6.73;6.13;;;19.50;99.90;;;;;;5054463;28;20562;-75
2023/07/20 01:36:17;;;;;;;5.60;5.17;;;19.50;99.90;;;;;;5048935;28;20476;-75
2023/07/20 01:38:45;;;;;;;4.20;3.90;;;19.50;99.90;;;;;;5034516;28;20546;-75
2023/07/20 01:41:12;;;;;;;6.40;5.90;;;19.50;99.90;;;;;;5047034;28;20474;-76
2023/07/20 01:43:39;;;;;;;5.10;4.73;;;19.40;99.90;;;;;;5054030;28;20977;-75
2023/07/20 01:46:05;;;;;;;6.03;5.57;;;19.50;99.90;;;;;;5053607;28;20471;-80
2023/07/20 01:48:34;;;;;;;5.77;5.30;;;19.40;99.90;;;;;;5054191;28;20983;-80
2023/07/20 01:51:01;;;;;;;5.43;5.03;;;19.40;99.90;;;;;;5053134;28;20485;-79
2023/07/20 01:53:28;;;;;;;5.30;4.90;;;19.40;99.90;;;;;;5054059;28;20460;-80
2023/07/20 01:55:55;;;;;;;5.77;5.03;;;19.30;99.90;;;;;;5054131;28;20478;-79
2023/07/20 01:58:22;;;;;;;4.57;4.27;;;19.30;99.90;;;;;;5054005;28;20463;-80
2023/07/20 02:00:49;;;;;;;5.50;4.90;;;19.40;99.90;;;;;;5054098;28;20550;-80
2023/07/20 02:03:15;;;;;;;5.10;4.60;;;19.30;99.90;;;;;;5052299;28;20483;-80
2023/07/20 02:05:45;;;;;;;5.97;5.40;;;19.30;99.90;;;;;;5053952;28;20521;-80
2023/07/20 02:08:11;;;;;;;5.27;4.77;;;19.30;99.90;;;;;;5053288;28;20499;-79
2023/07/20 02:10:39;;;;;;;5.60;5.20;;;19.30;99.90;;;;;;5054173;28;20498;-79
2023/07/20 02:13:18;;;;;;;5.43;4.77;;;19.30;99.90;;;;;;5053559;28;20879;-78
2023/07/20 02:15:47;;;;;;;5.80;5.40;;;19.30;99.90;;;;;;5053871;28;20814;-79
2023/07/20 02:18:14;;;;;;;5.00;4.57;;;19.30;99.90;;;;;;5053325;28;20467;-79
2023/07/20 02:20:42;;;;;;;5.00;4.60;;;19.30;99.90;;;;;;5053738;28;20952;-79
2023/07/20 02:23:11;;;;;;;5.23;4.83;;;19.30;99.90;;;;;;5052935;28;20467;-80
2023/07/20 02:25:39;;;;;;;6.30;5.90;;;19.30;99.90;;;;;;5053480;28;20471;-79
2023/07/20 02:28:08;;;;;;;6.70;5.90;;;19.30;99.90;;;;;;5053300;28;20478;-80
2023/07/20 02:30:35;;;;;;;7.87;7.17;;;19.30;99.90;;;;;;5053481;28;20657;-80
2023/07/20 02:33:06;;;;;;;6.53;5.90;;;19.20;99.90;;;;;;5053502;28;20474;-78
2023/07/20 02:35:33;;;;;;;7.00;6.40;;;19.20;99.90;;;;;;5053147;28;20463;-80
2023/07/20 02:37:59;;;;;;;8.53;7.70;;;19.20;99.90;;;;;;5053133;28;20974;-81
2023/07/20 02:40:28;;;;;;;8.40;7.70;;;19.20;99.90;;;;;;5052925;28;20554;-80
2023/07/20 02:42:54;;;;;;;10.33;7.80;;;19.20;99.90;;;;;;5053269;28;20471;-80
2023/07/20 02:45:21;;;;;;;10.17;9.27;;;19.20;99.90;;;;;;5052599;28;20481;-79
2023/07/20 02:47:48;;;;;;;8.87;8.13;;;19.20;99.90;;;;;;5053417;28;20963;-78
2023/07/20 02:50:16;;;;;;;11.07;9.80;;;19.20;99.90;;;;;;5052369;28;20463;-79
2023/07/20 02:52:43;;;;;;;9.60;8.33;;;19.20;99.90;;;;;;5052562;28;20493;-74
2023/07/20 02:55:10;;;;;;;11.13;10.13;;;19.20;99.90;;;;;;5052818;28;20487;-75
2023/07/20 02:57:38;;;;;;;9.63;8.80;;;19.20;99.90;;;;;;5052925;28;20491;-74
2023/07/20 03:00:07;;;;;;;9.50;8.67;;;19.20;99.90;;;;;;5053028;28;20486;-75
2023/07/20 03:02:33;;;;;;;11.37;10.47;;;19.20;99.90;;;;;;5052338;28;20455;-74
2023/07/20 03:05:02;;;;;;;10.50;9.70;;;19.20;99.90;;;;;;5053215;28;20510;-74
2023/07/20 03:07:31;;;;;;;9.23;8.43;;;19.20;99.90;;;;;;5052403;28;20526;-75
2023/07/20 03:09:58;;;;;;;9.27;8.43;;;19.20;99.90;;;;;;5053295;28;20467;-79
2023/07/20 03:12:25;;;;;;;8.73;8.10;;;19.20;99.90;;;;;;5052960;28;20554;-79
2023/07/20 03:14:54;;;;;;;8.73;8.03;;;19.10;99.90;;;;;;5053339;28;20815;-79
2023/07/20 03:17:21;;;;;;;9.73;8.90;;;19.10;99.90;;;;;;5052234;28;20487;-79
2023/07/20 03:19:48;;;;;;;10.20;9.10;;;19.10;99.90;;;;;;5051835;28;20467;-75
2023/07/20 03:22:15;;;;;;;8.83;8.17;;;19.10;99.90;;;;;;5050323;28;20562;-79
2023/07/20 03:24:41;;;;;;;9.40;7.97;;;19.10;99.90;;;;;;5050643;28;20499;-80
2023/07/20 03:27:08;;;;;;;10.20;9.23;;;19.10;99.90;;;;;;5051925;28;20558;-76
2023/07/20 03:29:35;;;;;;;11.43;10.33;;;19.10;99.90;;;;;;5051409;28;21000;-76
2023/07/20 03:32:04;;;;;;;12.00;10.80;;;19.10;99.90;;;;;;5052083;28;20503;-76
2023/07/20 03:34:31;;;;;;;12.83;11.73;;;19.10;99.90;;;;;;5051103;28;20542;-75
2023/07/20 03:36:58;;;;;;;10.40;9.60;;;19.10;99.90;;;;;;5052755;28;20545;-80
2023/07/20 03:39:25;;;;;;;10.97;10.07;;;19.10;99.90;;;;;;5052415;28;20552;-79
2023/07/20 03:41:52;;;;;;;10.97;9.97;;;19.10;99.90;;;;;;5035094;28;20561;-75
2023/07/20 03:44:19;;;;;;;9.13;8.43;;;19.10;99.90;;;;;;5032255;28;20487;-76
2023/07/20 03:46:46;;;;;;;7.93;7.33;;;19.10;99.90;;;;;;5033118;28;20543;-76
2023/07/20 03:49:15;;;;;;;8.13;7.43;;;19.10;99.90;;;;;;5032704;28;20473;-75
2023/07/20 03:51:42;;;;;;;6.90;6.40;;;19.10;99.90;;;;;;5032686;28;20465;-79
2023/07/20 03:54:09;;;;;;;8.20;7.60;;;19.10;99.90;;;;;;5032948;28;20479;-80
2023/07/20 03:56:36;;;;;;;7.00;6.40;;;19.10;99.90;;;;;;5032596;28;20476;-79
2023/07/20 03:59:03;;;;;;;8.80;8.03;;;19.10;99.90;;;;;;5032349;28;20468;-76
2023/07/20 04:01:39;;;;;;;7.80;7.20;;;19.20;99.90;;;;;;5031493;28;20486;-75
2023/07/20 04:04:08;;;;;;;8.60;8.00;;;19.10;99.90;;;;;;5033282;28;20533;-76
2023/07/20 04:06:36;;;;;;;8.03;7.37;;;19.10;99.90;;;;;;5036113;28;20965;-79
2023/07/20 04:09:05;;;;;;;9.83;8.83;;;19.10;99.90;;;;;;5036183;28;20464;-79
2023/07/20 04:11:33;;;;;;;8.17;7.43;;;19.10;99.90;;;;;;5035855;28;20460;-75
2023/07/20 04:14:00;;;;;;;7.90;7.17;;;19.10;99.90;;;;;;5035967;28;20486;-75
2023/07/20 04:16:27;;;;;;;7.60;7.00;;;19.10;99.90;;;;;;5035671;28;20500;-79
2023/07/20 04:18:56;;;;;;;7.63;7.03;;;19.10;99.90;;;;;;5036501;28;20950;-79
2023/07/20 04:21:23;;;;;;;7.80;7.10;;;19.20;99.90;;;;;;5035026;28;20541;-75
2023/07/20 04:23:51;;;;;;;8.97;8.20;;;19.20;99.90;;;;;;5036122;28;20472;-75
2023/07/20 04:26:18;;;;;;;6.33;5.73;;;19.20;99.90;;;;;;5035771;28;20953;-80
2023/07/20 04:28:47;;;;;;;7.00;6.40;;;19.20;99.90;;;;;;5034803;28;20559;-79
2023/07/20 04:31:15;;;;;;;7.53;6.87;;;19.20;99.90;;;;;;5035902;28;20466;-79
2023/07/20 04:33:43;;;;;;;8.57;7.70;;;19.20;99.90;;;;;;5035390;28;20540;-79
2023/07/20 04:36:10;;;;;;;7.70;7.00;;;19.20;99.90;;;;;;5035685;28;21019;-75
2023/07/20 04:38:37;;;;;;;7.00;6.40;;;19.20;99.90;;;;;;5035352;28;21005;-76
2023/07/20 04:41:05;;;;;;;8.13;7.37;;;19.20;99.90;;;;;;5035637;28;20575;-74
2023/07/20 04:43:32;;;;;;;8.33;7.70;;;19.20;99.90;;;;;;5035251;28;20552;-79
2023/07/20 04:45:59;;;;;;;7.90;7.07;;;19.20;99.90;;;;;;5035742;28;20476;-79
2023/07/20 04:48:26;;;;;;;8.77;7.93;;;19.30;99.90;;;;;;5035090;28;20478;-79
2023/07/20 04:50:53;;;;;;;8.90;8.30;;;19.30;99.90;;;;;;5035718;28;20479;-79
2023/07/20 04:53:20;;;;;;;8.53;7.90;;;19.30;99.90;;;;;;5035467;28;20469;-79
2023/07/20 04:55:54;;;;;;;7.50;6.90;;;19.30;99.90;;;;;;5034072;28;20476;-75
2023/07/20 04:58:23;;;;;;;6.90;6.30;;;19.30;99.90;;;;;;5035328;28;20499;-75
2023/07/20 05:00:51;;;;;;;6.20;5.70;;;19.30;99.90;;;;;;5035283;28;20492;-79
2023/07/20 05:03:18;;;;;;;7.40;6.80;;;19.30;99.90;;;;;;5035268;28;20472;-79
2023/07/20 05:05:45;;;;;;;6.10;5.60;;;19.40;99.90;;;;;;5034865;28;20492;-79
2023/07/20 05:08:12;;;;;;;8.13;7.43;;;19.40;99.90;;;;;;5035005;28;20865;-74
2023/07/20 05:10:39;;;;;;;6.60;6.10;;;19.40;99.90;;;;;;5035151;28;20536;-80
2023/07/20 05:13:06;;;;;;;8.00;7.40;;;19.50;99.90;;;;;;5035214;28;20510;-75
2023/07/20 05:15:35;;;;;;;6.53;6.13;;;19.50;99.90;;;;;;5034068;28;20483;-75
2023/07/20 05:18:02;;;;;;;6.90;6.30;;;19.60;99.90;;;;;;5035203;28;20475;-79
2023/07/20 05:20:31;;;;;;;7.00;6.40;;;19.60;99.90;;;;;;5034270;28;20530;-76
2023/07/20 05:22:58;;;;;;;7.57;6.87;;;19.60;99.90;;;;;;5035028;28;20981;-80
2023/07/20 05:25:25;;;;;;;8.07;7.47;;;19.60;99.90;;;;;;5034913;28;20504;-76
2023/07/20 05:27:55;;;;;;;7.23;6.50;;;19.60;99.90;;;;;;5034463;28;20857;-79
2023/07/20 05:30:22;;;;;;;6.87;6.20;;;19.70;99.90;;;;;;5034889;28;20539;-79
2023/07/20 05:32:52;;;;;;;6.57;6.07;;;19.60;99.90;;;;;;5034396;28;20487;-79
2023/07/20 05:35:19;;;;;;;7.03;6.53;;;19.60;99.90;;;;;;5034705;28;20961;-80
2023/07/20 05:37:46;;;;;;;7.50;7.00;;;19.60;99.90;;;;;;5034400;28;20563;-76
2023/07/20 05:40:18;;;;;;;7.70;6.97;;;19.60;99.90;;;;;;5034699;28;20864;-76
2023/07/20 05:42:45;;;;;;;6.90;6.40;;;19.70;99.90;;;;;;5034170;28;20576;-80
2023/07/20 05:45:12;;;;;;;7.40;6.77;;;19.70;99.90;;;;;;5034162;28;20873;-80
2023/07/20 05:47:39;;;;;;;6.90;6.40;;;19.80;99.90;;;;;;5033612;28;20508;-79
2023/07/20 05:50:08;;;;;;;6.30;5.90;;;19.90;99.90;;;;;;5034330;28;20464;-80
2023/07/20 05:52:38;;;;;;;8.03;7.20;;;19.90;99.90;;;;;;5034917;28;20476;-79
2023/07/20 05:55:06;;;;;;;7.30;6.80;;;19.90;99.90;;;;;;5033784;28;20472;-80
2023/07/20 05:57:33;;;;;;;8.13;6.90;;;20.00;99.90;;;;;;5032854;28;20488;-77
2023/07/20 06:00:00;;;;;;;6.90;6.40;;;20.10;99.90;;;;;;5034005;28;20476;-76
2023/07/20 06:02:27;;;;;;;6.67;6.07;;;20.10;99.90;;;;;;5033701;28;20533;-80
2023/07/20 06:04:54;;;;;;;7.30;6.70;;;20.20;99.90;;;;;;5033354;28;20595;-80
2023/07/20 06:07:24;;;;;;;5.80;5.30;;;20.30;99.90;;;;;;5033121;28;20468;-77
2023/07/20 06:09:51;;;;;;;6.93;6.40;;;20.20;99.90;;;;;;5034021;28;20483;-81
2023/07/20 06:12:18;;;;;;;6.70;5.93;;;20.30;99.90;;;;;;5033896;28;20498;-80
2023/07/20 06:14:45;;;;;;;6.40;5.90;;;20.30;99.90;;;;;;5033458;28;20807;-76
2023/07/20 06:17:12;;;;;;;6.10;5.63;;;20.40;99.90;;;;;;5033962;28;20551;-80
2023/07/20 06:19:39;;;;;;;6.63;5.33;;;20.40;99.90;;;;;;5033660;28;20472;-80
2023/07/20 06:22:06;;;;;;;6.97;6.27;;;20.40;99.90;;;;;;5033906;28;20543;-76
2023/07/20 06:24:34;;;;;;;7.60;5.57;;;20.50;99.90;;;;;;5033096;28;21005;-79
2023/07/20 06:27:02;;;;;;;5.13;4.70;;;20.40;99.90;;;;;;5033214;28;20480;-80
2023/07/20 06:29:29;;;;;;;5.60;5.10;;;20.40;99.90;;;;;;5033688;28;20464;-80
2023/07/20 06:31:56;;;;;;;5.73;5.27;;;20.40;99.90;;;;;;5033205;28;20510;-80
2023/07/20 06:34:25;;;;;;;5.67;5.17;;;20.50;99.90;;;;;;5033847;28;20547;-80
2023/07/20 06:36:52;;;;;;;4.90;4.57;;;20.50;99.90;;;;;;5033450;28;20500;-80
2023/07/20 06:39:19;;;;;;;4.67;4.27;;;20.50;99.90;;;;;;5039648;28;20550;-80
2023/07/20 06:41:47;;;;;;;5.00;4.53;;;20.50;99.90;;;;;;5053885;28;20960;-80
2023/07/20 06:44:16;;;;;;;4.70;4.30;;;20.50;99.90;;;;;;5052652;28;20550;-80
2023/07/20 06:46:44;;;;;;;4.73;4.40;;;20.50;99.90;;;;;;5052202;28;20467;-79
2023/07/20 06:49:24;;;;;;;5.00;4.60;;;20.50;99.90;;;;;;5053490;28;20487;-81
2023/07/20 06:51:51;;;;;;;3.87;3.57;;;20.50;99.90;;;;;;5052777;28;20551;-80
2023/07/20 06:54:18;;;;;;;3.20;3.00;;;20.50;99.90;;;;;;5052409;28;20996;-81
2023/07/20 06:56:45;;;;;;;4.50;3.50;;;20.60;99.90;;;;;;5052661;28;20471;-80
2023/07/20 06:59:13;;;;;;;5.90;3.30;;;20.70;99.90;;;;;;5052967;28;20467;-81
2023/07/20 07:01:40;;;;;;;3.70;2.97;;;20.90;99.90;;;;;;5052674;28;20550;-79
2023/07/20 07:04:07;;;;;;;2.97;2.60;;;21.10;99.90;;;;;;5053027;28;20471;-75
2023/07/20 07:06:35;;;;;;;2.60;2.40;;;21.40;99.90;;;;;;5053165;28;20467;-77
2023/07/20 07:09:02;;;;;;;3.80;2.57;;;21.60;99.90;;;;;;5052398;28;20460;-76
2023/07/20 07:11:32;;;;;;;1.83;1.73;;;21.80;99.90;;;;;;5053152;28;20542;-76
2023/07/20 07:14:02;;;;;;;2.33;2.23;;;22.00;99.90;;;;;;5052480;28;20479;-79
2023/07/20 07:16:30;;;;;;;2.10;2.00;;;22.10;99.90;;;;;;5052838;28;20471;-76
2023/07/20 07:18:58;;;;;;;2.30;2.10;;;22.20;99.90;;;;;;5052342;28;20467;-76
2023/07/20 07:21:25;;;;;;;2.10;1.90;;;22.20;99.90;;;;;;5052490;28;20542;-77
2023/07/20 07:23:53;;;;;;;5.63;2.03;;;22.20;99.90;;;;;;5052053;28;20470;-80
2023/07/20 07:26:21;;;;;;;1.90;1.80;;;22.20;99.90;;;;;;5052888;28;20467;-76
2023/07/20 07:28:48;;;;;;;4.53;1.67;;;22.20;99.90;;;;;;5052363;28;20876;-80
2023/07/20 07:31:15;;;;;;;1.90;1.80;;;22.30;99.90;;;;;;5053008;28;20474;-80
2023/07/20 07:33:43;;;;;;;2.70;1.40;;;22.50;99.90;;;;;;5052964;28;20480;-80
2023/07/20 07:36:11;;;;;;;3.73;1.90;;;22.70;99.90;;;;;;5053072;28;20470;-76
2023/07/20 07:38:38;;;;;;;1.93;1.43;;;22.80;99.90;;;;;;5054461;28;20808;-80
2023/07/20 07:41:05;;;;;;;1.53;1.37;;;23.00;99.90;;;;;;5056054;28;20851;-79
2023/07/20 07:46:18;;;;;;;2.90;1.53;;;23.20;99.90;;;;;;4899227;29;20837;-76
2023/07/20 07:48:47;;;;;;;2.07;1.33;;;23.30;99.90;;;;;;4901564;29;20481;-76
2023/07/20 07:51:15;;;;;;;1.33;1.23;;;23.20;99.90;;;;;;4901165;29;20983;-79
2023/07/20 07:53:43;;;;;;;2.30;1.47;;;23.30;99.90;;;;;;4901242;29;20876;-80
2023/07/20 07:56:14;;;;;;;1.50;1.40;;;23.30;99.90;;;;;;4899954;29;20478;-79
2023/07/20 07:58:41;;;;;;;1.50;1.20;;;23.40;99.90;;;;;;4900451;29;20482;-79
2023/07/20 08:01:12;;;;;;;1.37;1.27;;;23.50;99.90;;;;;;4883340;29;20486;-79
2023/07/20 08:03:41;;;;;;;1.40;1.30;;;23.60;99.90;;;;;;4901374;29;20478;-76
2023/07/20 08:06:09;;;;;;;3.27;1.37;;;23.50;99.90;;;;;;4891299;29;20478;-76
2023/07/20 08:08:36;;;;;;;1.67;1.57;;;23.60;99.90;;;;;;4900923;29;20545;-76
2023/07/20 08:11:06;;;;;;;1.67;1.57;;;23.60;99.90;;;;;;4900561;29;20494;-79
2023/07/20 08:13:33;;;;;;;2.00;1.40;;;23.60;99.90;;;;;;4901300;29;20462;-79
2023/07/20 08:16:04;;;;;;;3.47;1.70;;;23.50;99.90;;;;;;4900830;29;20474;-79
2023/07/20 08:18:31;;;;;;;2.43;2.00;;;23.40;99.90;;;;;;4900412;29;20478;-79
2023/07/20 08:20:58;;;;;;;1.53;1.43;;;23.40;99.90;;;;;;4900873;29;20509;-78
2023/07/20 08:23:27;;;;;;;1.50;1.40;;;23.30;99.90;;;;;;4900579;29;20494;-79
2023/07/20 08:25:54;;;;;;;1.70;1.40;;;23.30;99.90;;;;;;4901035;29;20976;-78
2023/07/20 08:28:21;;;;;;;1.60;1.50;;;23.30;99.90;;;;;;4900116;29;21004;-75
2023/07/20 08:30:50;;;;;;;2.60;1.67;;;23.30;99.90;;;;;;4900885;29;20481;-76
2023/07/20 08:33:19;;;;;;;1.70;1.60;;;23.50;99.90;;;;;;4899993;29;20474;-76
2023/07/20 08:35:47;;;;;;;1.67;1.57;;;23.50;99.90;;;;;;4900690;29;20566;-76
2023/07/20 08:38:14;;;;;;;1.60;1.30;;;23.60;99.90;;;;;;4900705;29;20515;-79
2023/07/20 08:40:44;;;;;;;0.90;0.90;;;23.70;99.90;;;;;;4900266;29;20554;-79
2023/07/20 08:43:12;;;;;;;2.10;1.40;;;23.80;99.00;;;;;;4900563;29;20992;-76
2023/07/20 08:45:40;;;;;;;1.33;1.23;;;23.80;98.80;;;;;;4900432;29;20503;-76
2023/07/20 08:48:08;;;;;;;3.20;2.90;;;23.90;98.20;;;;;;4910155;29;20504;-75
2023/07/20 08:50:36;;;;;;;2.40;1.87;;;23.90;98.20;;;;;;4917203;29;20488;-75
2023/07/20 08:53:03;;;;;;;2.90;2.03;;;23.90;97.70;;;;;;4919041;29;20520;-79
2023/07/20 08:55:31;;;;;;;2.27;1.40;;;23.90;97.00;;;;;;4919395;29;20470;-77
2023/07/20 08:58:01;;;;;;;1.80;1.70;;;23.90;96.80;;;;;;4919678;29;20601;-76
2023/07/20 09:00:29;;;;;;;1.10;1.00;;;23.90;96.70;;;;;;4920239;29;20461;-76
2023/07/20 09:02:56;;;;;;;1.30;0.97;;;24.00;96.60;;;;;;4919571;29;21035;-79
2023/07/20 09:05:25;;;;;;;3.23;1.20;;;23.90;96.90;;;;;;4918231;29;21177;-75
2023/07/20 09:07:53;;;;;;;1.20;1.10;;;23.90;96.80;;;;;;4918774;29;20481;-79
2023/07/20 09:10:22;;;;;;;0.90;0.80;;;23.90;96.70;;;;;;4918590;29;20536;-76
2023/07/20 09:12:50;;;;;;;0.83;0.83;;;24.00;96.80;;;;;;4919521;29;20819;-77
2023/07/20 09:15:19;;;;;;;2.80;1.07;;;24.00;96.50;;;;;;4920298;29;20509;-82
2023/07/20 09:17:50;;;;;;;1.20;1.10;;;24.10;96.30;;;;;;4918035;29;20536;-77
2023/07/20 09:20:18;;;;;;;0.97;0.90;;;24.20;96.10;;;;;;4920992;29;20841;-82
2023/07/20 09:22:45;;;;;;;1.40;1.30;;;24.20;96.00;;;;;;4911991;29;20505;-82
2023/07/20 09:25:14;;;;;;;1.10;1.00;;;24.20;96.00;;;;;;4919349;29;20577;-76
2023/07/20 09:27:44;;;;;;;1.17;1.00;;;24.10;96.20;;;;;;4919066;29;20469;-76
2023/07/20 09:30:13;;;;;;;1.10;1.00;;;24.20;95.50;;;;;;4918877;29;20537;-76
2023/07/20 09:32:43;;;;;;;1.57;1.30;;;24.20;95.20;;;;;;4918219;29;20473;-76
2023/07/20 09:35:21;;;;;;;5.80;1.23;;;24.10;95.30;;;;;;4910782;29;20558;-82
2023/07/20 09:37:51;;;;;;;1.57;1.00;;;24.10;95.30;;;;;;4911276;29;20492;-83
2023/07/20 09:40:19;;;;;;;1.60;1.20;;;24.10;95.30;;;;;;4913107;29;20508;-82
2023/07/20 09:42:47;;;;;;;1.67;1.17;;;24.00;95.10;;;;;;4916640;29;20464;-82
2023/07/20 09:45:15;;;;;;;1.40;1.30;;;23.90;95.10;;;;;;4914183;29;20481;-76
2023/07/20 09:47:43;;;;;;;1.83;1.37;;;23.80;95.00;;;;;;4911330;29;20848;-82
2023/07/20 09:50:11;;;;;;;2.17;1.30;;;23.80;95.30;;;;;;4920574;29;20972;-82
2023/07/20 09:52:44;;;;;;;1.07;0.97;;;23.70;95.50;;;;;;4920443;29;20481;-83
2023/07/20 09:55:12;;;;;;;1.20;0.90;;;23.60;95.60;;;;;;4922162;29;20549;-77
2023/07/20 09:57:40;;;;;;;1.43;1.33;;;23.40;96.00;;;;;;4921010;29;20529;-76
2023/07/20 10:00:12;;;;;;;1.63;1.23;;;23.40;96.40;;;;;;4922349;29;20981;-77
2023/07/20 10:02:46;;;;;;;2.03;1.63;;;23.30;96.80;;;;;;4917063;29;20537;-77
2023/07/20 10:05:17;;;;;;;1.30;1.20;;;23.20;97.30;;;;;;4919305;29;20477;-82
2023/07/20 10:07:47;;;;;;;3.13;1.37;;;23.10;97.90;;;;;;4911139;29;20473;-83
2023/07/20 10:10:16;;;;;;;2.20;1.97;;;23.00;98.70;;;;;;4932982;29;20499;-82
2023/07/20 10:12:45;;;;;;;1.40;1.30;;;23.00;99.00;;;;;;4917681;29;20564;-76
2023/07/20 10:15:16;;;;;;;1.70;1.27;;;22.90;98.50;;;;;;4918597;29;20470;-82
2023/07/20 10:18:04;;;;;;;1.80;1.70;;;22.90;98.50;;;;;;4919820;29;20559;-80
2023/07/20 10:20:33;;;;;;;1.93;1.70;;;22.80;98.40;;;;;;4919433;29;20502;-82
2023/07/20 10:23:01;;;;;;;2.77;2.10;;;22.70;98.40;;;;;;4917924;29;20538;-75
2023/07/20 10:25:29;;;;;;;2.03;1.93;;;22.70;98.20;;;;;;4921122;29;20477;-82
2023/07/20 10:27:58;;;;;;;2.07;1.80;;;22.70;98.20;;;;;;4920379;29;20524;-76
2023/07/20 10:30:35;;;;;;;2.77;1.37;;;22.70;98.00;;;;;;4928622;29;20469;-80
2023/07/20 10:33:17;;;;;;;2.83;1.80;;;22.70;98.10;;;;;;4930385;29;20488;-79
2023/07/20 10:35:55;;;;;;;2.67;2.37;;;22.80;98.00;;;;;;4927507;29;20504;-83
2023/07/20 10:38:37;;;;;;;1.50;1.13;;;22.80;97.90;;;;;;4929854;29;20544;-82
2023/07/20 10:41:04;;;;;;;1.60;1.50;;;22.80;97.80;;;;;;4925690;29;20462;-77
2023/07/20 10:43:32;;;;;;;2.00;1.83;;;22.80;97.60;;;;;;4920758;29;20529;-83
2023/07/20 10:46:02;;;;;;;1.90;1.70;;;22.80;97.90;;;;;;4926629;29;20477;-76
2023/07/20 10:49:04;;;;;;;1.50;1.30;;;22.80;98.00;;;;;;4898877;29;20931;-76
2023/07/20 10:51:39;;;;;;;1.93;1.23;;;22.90;98.10;;;;;;4898495;29;20471;-76
2023/07/20 10:54:10;;;;;;;1.20;1.10;;;22.90;98.30;;;;;;4905597;29;20972;-76
2023/07/20 10:56:38;;;;;;;1.60;1.50;;;23.00;98.40;;;;;;4902389;29;20474;-76
2023/07/20 10:59:20;;;;;;;1.57;1.20;;;23.00;98.40;;;;;;4904626;29;20486;-76
2023/07/20 11:01:49;;;;;;;3.10;1.20;;;22.90;98.20;;;;;;4904088;29;20462;-76
2023/07/20 11:04:18;;;;;;;1.77;1.17;;;22.90;98.30;;;;;;4899636;29;20905;-76
2023/07/20 11:06:46;;;;;;;2.17;1.37;;;23.00;98.10;;;;;;4899889;29;20525;-76
2023/07/20 11:09:15;;;;;;;1.50;1.40;;;23.00;97.80;;;;;;4903680;29;20485;-82
2023/07/20 11:11:43;;;;;;;1.50;1.30;;;23.10;97.60;;;;;;4910380;29;20474;-81
2023/07/20 11:14:20;;;;;;;1.30;1.10;;;23.20;97.40;;;;;;4916025;29;20482;-82
2023/07/20 11:16:50;;;;;;;1.80;1.63;;;23.20;97.10;;;;;;4913586;29;21034;-76
2023/07/20 11:19:20;;;;;;;2.03;0.97;;;23.30;97.20;;;;;;4924710;29;20498;-82
2023/07/20 11:21:51;;;;;;;2.17;1.90;;;23.30;96.60;;;;;;4928677;29;20483;-81
2023/07/20 11:24:19;;;;;;;6.37;3.90;;;23.30;96.80;;;;;;4921623;29;20485;-77
2023/07/20 11:26:49;;;;;;;1.20;1.10;;;23.40;97.00;;;;;;4923732;29;20473;-82
2023/07/20 11:29:18;;;;;;;0.90;0.80;;;23.40;97.10;;;;;;4922365;29;20537;-75
2023/07/20 11:31:47;;;;;;;1.53;1.00;;;23.40;97.30;;;;;;4921003;29;20552;-82
2023/07/20 11:34:15;;;;;;;2.73;1.40;;;23.50;97.40;;;;;;4913792;29;20497;-76
2023/07/20 11:36:45;;;;;;;2.20;2.00;;;23.50;97.30;;;;;;4920569;29;20520;-82
2023/07/20 11:39:13;;;;;;;2.17;1.20;;;23.60;96.90;;;;;;4922101;29;20473;-76
2023/07/20 11:41:44;;;;;;;1.10;1.00;;;23.60;96.40;;;;;;4920669;29;20798;-76
2023/07/20 11:44:14;;;;;;;1.30;1.00;;;23.70;96.40;;;;;;4920943;29;20481;-76
2023/07/20 11:46:44;;;;;;;1.13;1.03;;;23.80;96.50;;;;;;4920412;29;20894;-81
2023/07/20 11:49:11;;;;;;;1.60;1.13;;;23.80;96.20;;;;;;4919784;29;20483;-79
2023/07/20 11:51:39;;;;;;;2.63;2.00;;;23.90;95.90;;;;;;4909512;29;20479;-81
2023/07/20 11:54:10;;;;;;;3.63;1.43;;;24.00;95.00;;;;;;4925315;29;20525;-82
2023/07/20 11:56:45;;;;;;;5.17;4.67;;;24.20;94.00;;;;;;4921535;29;20476;-78
2023/07/20 11:59:12;;;;;;;1.73;0.80;;;24.20;94.20;;;;;;4927401;29;20504;-83
2023/07/20 12:01:39;;;;;;;2.10;1.23;;;24.20;93.90;;;;;;4922611;29;20481;-82
2023/07/20 12:04:07;;;;;;;1.70;1.40;;;24.10;94.10;;;;;;4925386;29;20485;-82
2023/07/20 12:06:34;;;;;;;2.30;1.33;;;24.10;94.20;;;;;;4925382;29;20497;-83
2023/07/20 12:09:03;;;;;;;1.53;1.00;;;24.00;94.70;;;;;;4919005;29;20474;-77
2023/07/20 12:11:35;;;;;;;1.50;1.40;;;23.90;94.90;;;;;;4920842;29;20474;-77
2023/07/20 12:14:04;;;;;;;2.43;1.60;;;23.90;95.20;;;;;;4922242;29;20497;-77
2023/07/20 12:16:31;;;;;;;0.97;0.97;;;23.80;95.20;;;;;;4920243;29;20477;-76
2023/07/20 12:19:06;;;;;;;2.27;1.40;;;23.60;95.40;;;;;;4919669;29;20500;-76
2023/07/20 12:21:35;;;;;;;1.63;1.10;;;23.50;95.70;;;;;;4921983;29;20575;-83
2023/07/20 12:24:03;;;;;;;3.57;2.90;;;23.30;96.10;;;;;;4919438;29;20488;-76
2023/07/20 12:26:31;;;;;;;4.47;2.33;;;23.30;96.20;;;;;;4919518;29;20469;-76
2023/07/20 12:28:59;;;;;;;2.27;2.07;;;23.30;96.40;;;;;;4920444;29;20473;-82
2023/07/20 12:31:27;;;;;;;2.93;2.73;;;23.30;96.40;;;;;;4919710;29;20558;-76
2023/07/20 12:33:57;;;;;;;3.43;3.13;;;23.40;96.40;;;;;;4919450;29;20489;-76
2023/07/20 12:36:25;;;;;;;1.70;1.47;;;23.40;96.30;;;;;;4920494;29;20470;-76
2023/07/20 12:39:01;;;;;;;1.50;1.40;;;23.40;96.10;;;;;;4920044;29;20852;-82
2023/07/20 12:41:28;;;;;;;3.90;2.10;;;23.40;95.80;;;;;;4899380;29;20820;-83
2023/07/20 12:44:00;;;;;;;1.30;1.20;;;23.30;95.30;;;;;;4900952;29;20562;-76
2023/07/20 12:47:15;;;;;;;4.13;2.17;;;23.40;94.50;;;;;;4901191;29;20474;-76
2023/07/20 12:49:45;;;;;;;1.47;0.93;;;23.40;93.90;;;;;;4887297;29;20537;-82
2023/07/20 12:52:12;;;;;;;1.47;1.27;;;23.40;94.20;;;;;;4903582;29;20504;-76
2023/07/20 12:54:40;;;;;;;2.10;1.53;;;23.40;94.50;;;;;;4899341;29;20820;-83
2023/07/20 12:57:07;;;;;;;1.10;1.00;;;23.40;94.70;;;;;;4903215;29;20779;-82